createdAt,value
2023-05-08T00:01:26.870Z,8.97
2023-05-08T00:03:55.124Z,8.57
2023-05-08T00:06:23.630Z,9.40
2023-05-08T00:08:51.939Z,10.00
2023-05-08T00:11:20.254Z,8.90
2023-05-08T00:13:49.008Z,9.00
2023-05-08T00:16:18.584Z,9.30
2023-05-08T00:18:46.975Z,8.83
2023-05-08T00:21:14.961Z,8.90
2023-05-08T00:23:43.406Z,9.20
2023-05-08T00:26:11.723Z,8.93
2023-05-08T00:28:40.104Z,8.87
2023-05-08T00:31:08.559Z,10.10
2023-05-08T00:33:38.034Z,9.90
2023-05-08T00:36:06.854Z,8.60
2023-05-08T00:38:36.222Z,8.23
2023-05-08T00:41:04.792Z,9.10
2023-05-08T00:43:33.638Z,9.13
2023-05-08T00:46:02.937Z,9.47
2023-05-08T00:48:33.800Z,8.97
2023-05-08T00:51:06.161Z,9.60
2023-05-08T00:53:36.992Z,10.00
2023-05-08T00:56:06.153Z,10.17
2023-05-08T00:58:34.732Z,8.80
2023-05-08T01:01:03.785Z,9.80
2023-05-08T01:03:33.716Z,10.20
2023-05-08T01:06:03.827Z,9.63
2023-05-08T01:08:32.873Z,10.57
2023-05-08T01:11:10.306Z,9.93
2023-05-08T01:13:52.252Z,9.73
2023-05-08T01:16:29.050Z,10.27
2023-05-08T01:19:02.779Z,9.90
2023-05-08T01:21:39.641Z,10.10
2023-05-08T01:24:32.354Z,10.30
2023-05-08T01:27:33.224Z,10.80
2023-05-08T01:30:29.490Z,10.37
2023-05-08T01:33:03.529Z,9.77
2023-05-08T01:35:35.695Z,10.20
2023-05-08T01:38:09.982Z,9.73
2023-05-08T01:40:45.763Z,10.17
2023-05-08T01:43:21.213Z,10.20
2023-05-08T01:45:52.397Z,9.93
2023-05-08T01:48:26.531Z,9.97
2023-05-08T01:51:00.827Z,10.77
2023-05-08T01:53:31.679Z,10.90
2023-05-08T01:56:02.447Z,9.50
2023-05-08T01:58:30.953Z,11.13
2023-05-08T02:01:01.153Z,10.27
2023-05-08T02:03:32.519Z,11.23
2023-05-08T02:06:02.220Z,9.80
2023-05-08T02:08:32.702Z,10.40
2023-05-08T02:11:03.118Z,10.97
2023-05-08T02:13:32.926Z,10.00
2023-05-08T02:16:02.963Z,9.67
2023-05-08T02:18:34.520Z,9.80
2023-05-08T02:21:04.997Z,9.70
2023-05-08T02:23:35.680Z,10.47
2023-05-08T02:26:05.682Z,10.10
2023-05-08T02:28:34.609Z,10.70
2023-05-08T02:31:04.194Z,10.73
2023-05-08T02:33:34.119Z,9.83
2023-05-08T02:36:03.445Z,10.10
2023-05-08T02:38:32.757Z,11.03
2023-05-08T02:41:03.949Z,10.57
2023-05-08T02:43:32.291Z,11.03
2023-05-08T02:46:10.773Z,11.30
2023-05-08T02:48:52.206Z,9.93
2023-05-08T02:51:28.212Z,10.93
2023-05-08T02:54:00.499Z,10.07
2023-05-08T02:56:35.412Z,10.17
2023-05-08T02:59:14.314Z,11.43
2023-05-08T03:01:49.454Z,10.27
2023-05-08T03:04:26.667Z,10.13
2023-05-08T03:06:57.929Z,10.10
2023-05-08T03:09:33.007Z,9.20
2023-05-08T03:12:06.569Z,10.23
2023-05-08T03:14:40.424Z,10.50
2023-05-08T03:17:13.288Z,10.40
2023-05-08T03:19:45.363Z,10.50
2023-05-08T03:22:16.390Z,10.10
2023-05-08T03:24:47.156Z,10.53
2023-05-08T03:27:17.248Z,10.90
2023-05-08T03:29:46.682Z,9.93
2023-05-08T03:32:15.800Z,10.90
2023-05-08T03:34:45.947Z,9.43
2023-05-08T03:37:14.471Z,10.70
2023-05-08T03:39:42.925Z,10.87
2023-05-08T03:42:21.053Z,10.93
2023-05-08T03:44:51.310Z,10.60
2023-05-08T03:47:20.916Z,10.97
2023-05-08T03:49:51.596Z,11.37
2023-05-08T03:52:19.974Z,10.60
2023-05-08T03:54:48.395Z,10.80
2023-05-08T03:57:16.741Z,10.93
2023-05-08T03:59:51.994Z,10.93
2023-05-08T04:02:26.891Z,10.60
2023-05-08T04:05:03.091Z,10.83
2023-05-08T04:07:37.301Z,10.90
2023-05-08T04:10:10.771Z,10.77
2023-05-08T04:12:46.413Z,10.83
2023-05-08T04:15:21.595Z,10.27
2023-05-08T04:17:53.046Z,10.37
2023-05-08T04:20:25.662Z,10.87
2023-05-08T04:22:56.140Z,11.13
2023-05-08T04:25:24.652Z,10.90
2023-05-08T04:27:55.023Z,11.63
2023-05-08T04:30:23.380Z,10.53
2023-05-08T04:32:52.772Z,11.20
2023-05-08T04:35:22.379Z,11.10
2023-05-08T04:37:50.721Z,11.53
2023-05-08T04:40:19.133Z,9.90
2023-05-08T04:42:47.907Z,10.73
2023-05-08T04:45:16.580Z,10.37
2023-05-08T04:47:44.975Z,10.87
2023-05-08T04:50:13.482Z,10.50
2023-05-08T04:52:43.100Z,10.20
2023-05-08T04:55:11.860Z,11.17
2023-05-08T04:57:40.106Z,10.90
2023-05-08T05:00:09.569Z,10.63
2023-05-08T05:02:37.724Z,11.10
2023-05-08T05:05:06.662Z,11.50
2023-05-08T05:07:35.002Z,12.23
2023-05-08T05:10:04.652Z,11.00
2023-05-08T05:12:32.669Z,11.13
2023-05-08T05:15:01.631Z,11.83
2023-05-08T05:17:29.973Z,11.47
2023-05-08T05:19:58.463Z,11.90
2023-05-08T05:22:27.959Z,11.10
2023-05-08T05:24:56.421Z,11.33
2023-05-08T05:27:26.470Z,10.67
2023-05-08T05:29:54.658Z,11.27
2023-05-08T05:32:23.042Z,12.57
2023-05-08T05:34:51.422Z,11.67
2023-05-08T05:37:19.738Z,11.43
2023-05-08T05:39:47.888Z,11.13
2023-05-08T05:42:16.103Z,11.40
2023-05-08T05:44:45.541Z,10.63
2023-05-08T05:47:13.695Z,11.53
2023-05-08T05:49:43.143Z,11.18
2023-05-08T05:52:11.717Z,11.47
2023-05-08T05:54:39.774Z,11.53
2023-05-08T05:57:07.908Z,11.40
2023-05-08T05:59:35.986Z,11.93
2023-05-08T06:02:05.567Z,12.33
2023-05-08T06:04:33.672Z,13.00
2023-05-08T06:07:02.075Z,11.13
2023-05-08T06:09:30.434Z,11.68
2023-05-08T06:11:58.791Z,11.10
2023-05-08T06:14:26.809Z,12.88
2023-05-08T06:16:54.848Z,11.93
2023-05-08T06:19:24.552Z,12.40
2023-05-08T06:21:52.689Z,11.20
2023-05-08T06:24:21.006Z,11.73
2023-05-08T06:26:49.305Z,12.02
2023-05-08T06:29:17.372Z,11.18
2023-05-08T06:31:45.719Z,11.57
2023-05-08T06:34:13.830Z,11.05
2023-05-08T06:36:43.223Z,11.18
2023-05-08T06:39:11.378Z,11.77
2023-05-08T06:41:39.705Z,11.65
2023-05-08T06:44:07.765Z,11.93
2023-05-08T06:46:35.853Z,11.43
2023-05-08T06:49:04.303Z,12.00
2023-05-08T06:51:32.812Z,12.48
2023-05-08T06:54:02.365Z,11.77
2023-05-08T06:56:30.622Z,13.82
2023-05-08T06:59:07.912Z,12.05
2023-05-08T07:01:37.402Z,12.15
2023-05-08T07:04:06.292Z,12.65
2023-05-08T07:06:34.524Z,12.00
2023-05-08T07:09:03.890Z,12.38
2023-05-08T07:11:32.217Z,13.00
2023-05-08T07:14:00.545Z,11.73
2023-05-08T07:16:29.026Z,13.57
2023-05-08T07:18:57.376Z,12.73
2023-05-08T07:21:25.703Z,13.52
2023-05-08T07:23:54.828Z,13.18
2023-05-08T07:26:24.367Z,12.25
2023-05-08T07:28:54.240Z,13.10
2023-05-08T07:31:22.775Z,13.10
2023-05-08T07:33:50.971Z,13.52
2023-05-08T07:36:19.278Z,13.40
2023-05-08T07:38:47.638Z,13.60
2023-05-08T07:41:15.682Z,13.68
2023-05-08T07:43:45.314Z,14.35
2023-05-08T07:46:18.180Z,13.77
2023-05-08T07:48:46.640Z,13.25
2023-05-08T07:51:15.278Z,13.73
2023-05-08T07:53:45.748Z,14.10
2023-05-08T07:56:13.971Z,14.57
2023-05-08T07:58:42.712Z,14.13
2023-05-08T08:01:12.165Z,14.80
2023-05-08T08:03:40.286Z,14.60
2023-05-08T08:06:08.622Z,14.27
2023-05-08T08:08:36.920Z,14.45
2023-05-08T08:11:05.830Z,14.55
2023-05-08T08:13:34.095Z,14.90
2023-05-08T08:16:04.129Z,13.93
2023-05-08T08:18:35.845Z,14.73
2023-05-08T08:21:06.549Z,14.63
2023-05-08T08:23:34.807Z,14.88
2023-05-08T08:26:03.100Z,13.88
2023-05-08T08:28:31.137Z,16.10
2023-05-08T08:30:59.236Z,15.23
2023-05-08T08:33:28.930Z,14.60
2023-05-08T08:35:58.312Z,15.23
2023-05-08T08:38:26.642Z,14.40
2023-05-08T08:40:54.705Z,15.30
2023-05-08T08:43:22.981Z,15.65
2023-05-08T08:45:51.056Z,17.00
2023-05-08T08:48:21.307Z,16.20
2023-05-08T08:50:54.374Z,16.02
2023-05-08T08:53:28.144Z,15.32
2023-05-08T08:55:58.032Z,14.68
2023-05-08T08:58:32.415Z,15.45
2023-05-08T09:01:03.947Z,16.40
2023-05-08T09:03:32.625Z,14.95
2023-05-08T09:06:01.470Z,13.75
2023-05-08T09:08:31.222Z,14.80
2023-05-08T09:10:59.559Z,17.02
2023-05-08T09:13:27.970Z,14.25
2023-05-08T09:15:56.311Z,15.70
2023-05-08T09:18:24.675Z,15.77
2023-05-08T09:20:53.154Z,14.23
2023-05-08T09:23:21.488Z,15.88
2023-05-08T09:25:51.461Z,16.15
2023-05-08T09:28:20.813Z,15.20
2023-05-08T09:30:54.003Z,15.65
2023-05-08T09:33:23.354Z,16.30
2023-05-08T09:35:51.637Z,17.67
2023-05-08T09:38:34.794Z,16.70
2023-05-08T09:41:11.902Z,15.90
2023-05-08T09:43:40.420Z,16.33
2023-05-08T09:46:25.365Z,15.48
2023-05-08T09:48:54.847Z,16.48
2023-05-08T09:51:23.371Z,16.98
2023-05-08T09:53:53.257Z,17.92
2023-05-08T09:56:40.619Z,15.65
2023-05-08T09:59:24.929Z,18.35
2023-05-08T10:01:53.473Z,16.30
2023-05-08T10:04:33.307Z,15.50
2023-05-08T10:07:01.696Z,16.38
2023-05-08T10:09:39.326Z,16.05
2023-05-08T10:12:16.731Z,16.35
2023-05-08T10:14:46.792Z,16.67
2023-05-08T10:17:21.504Z,14.43
2023-05-08T10:19:52.441Z,16.45
2023-05-08T10:22:23.774Z,16.50
2023-05-08T10:24:56.764Z,16.42
2023-05-08T10:27:32.143Z,16.40
2023-05-08T10:30:04.270Z,17.65
2023-05-08T10:32:40.533Z,16.33
2023-05-08T10:35:11.746Z,15.65
2023-05-08T10:37:42.231Z,14.25
2023-05-08T10:40:12.101Z,16.05
2023-05-08T10:42:42.521Z,14.38
2023-05-08T10:45:11.560Z,14.80
2023-05-08T10:47:49.923Z,16.45
2023-05-08T10:50:30.012Z,15.57
2023-05-08T10:53:05.603Z,16.00
2023-05-08T10:55:35.086Z,14.43
2023-05-08T10:58:12.420Z,16.33
2023-05-08T11:01:12.417Z,14.65
2023-05-08T11:03:43.401Z,15.38
2023-05-08T11:06:12.264Z,14.93
2023-05-08T11:08:51.617Z,16.70
2023-05-08T11:11:27.725Z,16.52
2023-05-08T11:14:01.352Z,15.45
2023-05-08T11:17:08.107Z,15.27
2023-05-08T11:19:37.485Z,15.88
2023-05-08T11:22:16.497Z,15.23
2023-05-08T11:24:59.378Z,14.38
2023-05-08T11:27:36.092Z,15.27
2023-05-08T11:30:35.002Z,14.18
2023-05-08T11:33:33.805Z,16.58
2023-05-08T11:36:12.689Z,15.95
2023-05-08T11:38:41.205Z,16.17
2023-05-08T11:41:10.354Z,16.08
2023-05-08T11:44:14.934Z,14.43
2023-05-08T11:46:50.645Z,16.15
2023-05-08T11:49:23.806Z,14.98
2023-05-08T11:51:57.929Z,15.98
2023-05-08T11:54:27.042Z,15.40
2023-05-08T11:56:55.442Z,15.23
2023-05-08T11:59:23.562Z,14.73
2023-05-08T12:04:24.248Z,16.95
2023-05-08T12:06:58.799Z,16.15
2023-05-08T12:09:27.064Z,15.90
2023-05-08T12:11:59.073Z,17.38
2023-05-08T12:14:27.457Z,15.88
2023-05-08T12:16:57.067Z,16.65
2023-05-08T12:19:25.441Z,15.20
2023-05-08T12:21:53.497Z,15.05
2023-05-08T12:24:24.503Z,15.02
2023-05-08T12:26:56.258Z,17.27
2023-05-08T12:29:26.549Z,16.42
2023-05-08T12:31:56.729Z,13.30
2023-05-08T12:34:25.327Z,16.00
2023-05-08T12:37:03.869Z,15.80
2023-05-08T12:39:37.189Z,15.82
2023-05-08T12:42:05.824Z,14.63
2023-05-08T12:44:34.328Z,14.73
2023-05-08T12:47:05.954Z,17.13
2023-05-08T12:49:34.789Z,16.42
2023-05-08T12:52:07.109Z,15.63
2023-05-08T12:54:39.685Z,16.33
2023-05-08T12:57:12.220Z,15.50
2023-05-08T12:59:40.901Z,17.52
2023-05-08T13:02:16.252Z,16.15
2023-05-08T13:04:44.837Z,17.77
2023-05-08T13:07:13.264Z,15.57
2023-05-08T13:09:56.475Z,15.80
2023-05-08T13:12:24.468Z,14.50
2023-05-08T13:14:52.442Z,15.38
2023-05-08T13:17:22.004Z,14.65
2023-05-08T13:19:50.638Z,17.75
2023-05-08T13:22:23.055Z,17.00
2023-05-08T13:24:51.192Z,15.18
2023-05-08T13:27:19.740Z,15.32
2023-05-08T13:29:47.981Z,15.57
2023-05-08T13:32:16.472Z,17.00
2023-05-08T13:34:50.784Z,18.58
2023-05-08T13:37:20.414Z,17.70
2023-05-08T13:39:48.554Z,17.85
2023-05-08T13:42:16.688Z,18.30
2023-05-08T13:44:44.836Z,17.48
2023-05-08T13:47:13.468Z,16.40
2023-05-08T13:49:41.531Z,16.92
2023-05-08T13:52:11.321Z,18.60
2023-05-08T13:54:40.136Z,15.40
2023-05-08T13:57:08.668Z,16.13
2023-05-08T13:59:36.946Z,13.88
2023-05-08T14:02:05.574Z,11.93
2023-05-08T14:04:34.079Z,11.45
2023-05-08T14:07:02.397Z,10.60
2023-05-08T14:09:31.909Z,10.50
2023-05-08T14:12:00.198Z,10.00
2023-05-08T14:14:28.265Z,9.02
2023-05-08T14:16:56.668Z,9.27
2023-05-08T14:19:25.161Z,8.65
2023-05-08T14:21:53.742Z,8.60
2023-05-08T14:24:21.769Z,8.15
2023-05-08T14:26:51.208Z,8.52
2023-05-08T14:29:19.849Z,8.48
2023-05-08T14:31:48.330Z,9.10
2023-05-08T14:34:16.919Z,8.02
2023-05-08T14:36:45.516Z,8.82
2023-05-08T14:39:13.712Z,8.52
2023-05-08T14:41:48.128Z,8.90
2023-05-08T14:44:29.047Z,9.98
2023-05-08T14:46:57.346Z,9.02
2023-05-08T14:49:36.705Z,9.90
2023-05-08T14:52:06.554Z,9.55
2023-05-08T14:54:35.198Z,9.18
2023-05-08T14:57:03.776Z,10.20
2023-05-08T14:59:33.254Z,11.18
2023-05-08T15:02:01.505Z,8.30
2023-05-08T15:04:29.895Z,9.70
2023-05-08T15:06:58.269Z,10.85
2023-05-08T15:09:26.720Z,10.88
2023-05-08T15:11:54.867Z,10.32
2023-05-08T15:14:24.425Z,9.20
2023-05-08T15:16:53.873Z,10.40
2023-05-08T15:19:21.875Z,10.32
2023-05-08T15:21:50.360Z,10.43
2023-05-08T15:24:18.410Z,11.07
2023-05-08T15:26:46.527Z,10.00
2023-05-08T15:29:14.557Z,10.55
2023-05-08T15:31:43.031Z,12.23
2023-05-08T15:34:12.554Z,10.80
2023-05-08T15:36:41.021Z,12.05
2023-05-08T15:39:09.453Z,11.68
2023-05-08T15:41:39.689Z,10.43
2023-05-08T15:44:08.028Z,11.90
2023-05-08T15:46:36.393Z,11.23
2023-05-08T15:49:04.528Z,10.82
2023-05-08T15:51:34.037Z,11.43
2023-05-08T15:54:02.082Z,12.10
2023-05-08T15:56:30.128Z,11.23
2023-05-08T15:58:58.442Z,10.68
2023-05-08T16:01:26.637Z,11.75
2023-05-08T16:03:54.786Z,12.93
2023-05-08T16:06:23.086Z,12.27
2023-05-08T16:08:52.725Z,12.18
2023-05-08T16:11:21.718Z,11.10
2023-05-08T16:13:49.808Z,10.68
2023-05-08T16:16:18.117Z,11.23
2023-05-08T16:18:46.131Z,11.80
2023-05-08T16:21:14.231Z,11.13
2023-05-08T16:23:42.672Z,11.38
2023-05-08T16:26:13.835Z,10.63
2023-05-08T16:28:42.382Z,10.75
2023-05-08T16:31:11.842Z,10.88
2023-05-08T16:33:40.101Z,11.23
2023-05-08T16:36:08.398Z,11.57
2023-05-08T16:38:36.982Z,11.23
2023-05-08T16:41:06.242Z,12.50
2023-05-08T16:43:35.791Z,14.13
2023-05-08T16:46:06.451Z,14.07
2023-05-08T16:48:34.833Z,11.30
2023-05-08T16:51:03.013Z,15.13
2023-05-08T16:53:32.495Z,14.35
2023-05-08T16:58:29.211Z,12.52
2023-05-08T17:00:58.679Z,13.60
2023-05-08T17:03:27.142Z,14.27
2023-05-08T17:05:55.528Z,13.25
2023-05-08T17:08:23.833Z,12.52
2023-05-08T17:10:54.207Z,13.20
2023-05-08T17:13:22.704Z,13.70
2023-05-08T17:15:51.245Z,13.15
2023-05-08T17:18:20.824Z,13.25
2023-05-08T17:20:49.262Z,13.90
2023-05-08T17:23:17.413Z,13.23
2023-05-08T17:25:45.809Z,13.30
2023-05-08T17:28:14.297Z,13.48
2023-05-08T17:30:42.367Z,16.35
2023-05-08T17:33:11.076Z,13.57
2023-05-08T17:35:40.761Z,14.23
2023-05-08T17:38:09.207Z,13.95
2023-05-08T17:40:39.015Z,13.98
2023-05-08T17:43:08.551Z,13.98
2023-05-08T17:45:36.641Z,12.90
2023-05-08T17:48:05.375Z,12.88
2023-05-08T17:50:35.141Z,12.55
2023-05-08T17:53:04.513Z,13.80
2023-05-08T17:55:34.559Z,14.30
2023-05-08T17:58:03.062Z,13.95
2023-05-08T18:00:31.240Z,14.73
2023-05-08T18:02:59.423Z,14.40
2023-05-08T18:05:27.497Z,13.48
2023-05-08T18:07:55.971Z,13.18
2023-05-08T18:10:25.693Z,14.63
2023-05-08T18:12:54.152Z,12.77
2023-05-08T18:15:22.761Z,14.18
2023-05-08T18:17:51.657Z,12.93
2023-05-08T18:20:20.872Z,12.73
2023-05-08T18:22:49.356Z,14.25
2023-05-08T18:25:17.585Z,13.68
2023-05-08T18:27:48.812Z,13.52
2023-05-08T18:30:17.903Z,14.68
2023-05-08T18:32:46.327Z,13.05
2023-05-08T18:35:14.510Z,13.07
2023-05-08T18:37:42.902Z,14.05
2023-05-08T18:40:12.293Z,18.88
2023-05-08T18:42:40.778Z,14.55
2023-05-08T18:45:11.957Z,14.55
2023-05-08T18:47:40.068Z,12.90
2023-05-08T18:50:09.438Z,14.82
2023-05-08T18:52:37.812Z,13.52
2023-05-08T18:55:06.751Z,14.27
2023-05-08T18:57:35.076Z,14.40
2023-05-08T19:00:04.046Z,14.50
2023-05-08T19:02:33.536Z,15.30
2023-05-08T19:05:02.104Z,13.40
2023-05-08T19:07:30.466Z,14.73
2023-05-08T19:09:58.485Z,15.13
2023-05-08T19:12:26.531Z,14.27
2023-05-08T19:14:55.174Z,14.48
2023-05-08T19:17:23.513Z,15.98
2023-05-08T19:19:53.067Z,15.35
2023-05-08T19:22:21.473Z,16.40
2023-05-08T19:24:49.838Z,14.43
2023-05-08T19:27:18.149Z,16.40
2023-05-08T19:29:46.202Z,16.10
2023-05-08T19:32:14.578Z,15.80
2023-05-08T19:34:43.797Z,17.20
2023-05-08T19:37:13.156Z,15.13
2023-05-08T19:39:41.508Z,18.08
2023-05-08T19:42:11.465Z,14.48
2023-05-08T19:44:39.956Z,16.73
2023-05-08T19:47:08.675Z,16.35
2023-05-08T19:49:37.134Z,16.80
2023-05-08T19:52:05.373Z,15.98
2023-05-08T19:54:34.800Z,16.05
2023-05-08T19:57:03.349Z,17.17
2023-05-08T19:59:31.771Z,15.85
2023-05-08T20:02:00.068Z,15.43
2023-05-08T20:04:28.525Z,18.60
2023-05-08T20:06:56.881Z,16.35
2023-05-08T20:09:24.947Z,15.75
2023-05-08T20:11:55.350Z,14.38
2023-05-08T20:14:23.371Z,16.77
2023-05-08T20:16:51.503Z,16.50
2023-05-08T20:19:19.985Z,16.73
2023-05-08T20:21:48.348Z,17.10
2023-05-08T20:24:16.426Z,17.58
2023-05-08T20:26:44.859Z,16.70
2023-05-08T20:29:14.240Z,17.45
2023-05-08T20:31:42.250Z,16.33
2023-05-08T20:34:10.866Z,17.73
2023-05-08T20:36:39.355Z,18.80
2023-05-08T20:39:07.369Z,18.15
2023-05-08T20:41:36.227Z,17.92
2023-05-08T20:44:04.398Z,16.30
2023-05-08T20:46:33.845Z,16.27
2023-05-08T20:49:03.822Z,18.08
2023-05-08T20:51:32.597Z,17.83
2023-05-08T20:54:00.710Z,18.35
2023-05-08T20:56:28.820Z,14.90
2023-05-08T20:58:56.831Z,16.77
2023-05-08T21:01:24.895Z,16.55
2023-05-08T21:03:54.369Z,15.05
2023-05-08T21:06:22.776Z,15.77
2023-05-08T21:08:51.080Z,17.38
2023-05-08T21:11:19.571Z,16.90
2023-05-08T21:13:47.910Z,16.13
2023-05-08T21:16:15.986Z,15.73
2023-05-08T21:18:44.095Z,17.23
2023-05-08T21:21:22.522Z,17.38
2023-05-08T21:23:50.975Z,16.48
2023-05-08T21:26:19.965Z,17.58
2023-05-08T21:28:48.070Z,17.58
2023-05-08T21:31:16.105Z,16.85
2023-05-08T21:33:44.134Z,16.45
2023-05-08T21:36:12.185Z,17.50
2023-05-08T21:38:42.138Z,16.10
2023-05-08T21:41:10.567Z,16.83
2023-05-08T21:43:38.748Z,16.33
2023-05-08T21:46:09.209Z,16.48
2023-05-08T21:48:38.053Z,16.75
2023-05-08T21:51:06.884Z,17.73
2023-05-08T21:53:34.962Z,17.00
2023-05-08T21:56:04.486Z,15.45
2023-05-08T21:58:32.771Z,15.98
2023-05-08T22:01:01.438Z,16.88
2023-05-08T22:03:30.686Z,16.17
2023-05-08T22:05:59.222Z,16.23
2023-05-08T22:08:27.276Z,16.83
2023-05-08T22:10:56.071Z,16.08
2023-05-08T22:13:25.732Z,17.48
2023-05-08T22:15:54.311Z,17.38
2023-05-08T22:18:22.653Z,18.88
2023-05-08T22:20:50.654Z,16.85
2023-05-08T22:23:19.057Z,18.77
2023-05-08T22:25:47.130Z,18.85
2023-05-08T22:28:15.698Z,20.10
2023-05-08T22:30:45.145Z,18.85
2023-05-08T22:33:13.477Z,19.52
2023-05-08T22:35:41.820Z,18.40
2023-05-08T22:38:10.011Z,18.60
2023-05-08T22:40:38.439Z,19.38
2023-05-08T22:43:07.008Z,18.38
2023-05-08T22:45:35.270Z,19.42
2023-05-08T22:48:05.276Z,19.83
2023-05-08T22:50:33.704Z,19.17
2023-05-08T22:53:03.958Z,18.67
2023-05-08T22:55:32.297Z,18.40
2023-05-08T22:58:00.746Z,18.42
2023-05-08T23:00:29.123Z,17.95
2023-05-08T23:02:57.510Z,17.17
2023-05-08T23:05:27.007Z,17.80
2023-05-08T23:07:55.337Z,18.27
2023-05-08T23:10:23.636Z,17.42
2023-05-08T23:12:52.026Z,18.17
2023-05-08T23:15:21.201Z,17.98
2023-05-08T23:17:49.537Z,17.80
2023-05-08T23:20:18.106Z,17.58
2023-05-08T23:22:47.530Z,18.77
2023-05-08T23:25:16.497Z,17.92
2023-05-08T23:27:44.952Z,17.85
2023-05-08T23:30:16.706Z,18.08
2023-05-08T23:32:45.002Z,18.00
2023-05-08T23:35:13.753Z,17.73
2023-05-08T23:37:42.254Z,17.73
2023-05-08T23:40:12.734Z,16.73
2023-05-08T23:42:40.833Z,16.52
2023-05-08T23:45:11.238Z,17.98
2023-05-08T23:47:39.364Z,16.73
2023-05-08T23:50:08.453Z,17.33
2023-05-08T23:52:36.507Z,16.95
2023-05-08T23:55:06.407Z,17.95
2023-05-08T23:57:35.815Z,17.40
